createdAt,value
2018-10-06T00:00:18.174Z,71.12
2018-10-06T00:01:18.158Z,71.08
2018-10-06T00:02:18.146Z,70.98
2018-10-06T00:03:18.173Z,70.88
2018-10-06T00:04:18.129Z,71.01
2018-10-06T00:05:18.116Z,71.01
2018-10-06T00:06:18.122Z,71.62
2018-10-06T00:07:18.103Z,71.53
2018-10-06T00:08:18.107Z,71.53
2018-10-06T00:09:18.080Z,71.32
2018-10-06T00:10:18.062Z,71.73
2018-10-06T00:11:18.089Z,72.96
2018-10-06T00:12:18.041Z,72.65
2018-10-06T00:13:18.041Z,73.47
2018-10-06T00:14:18.038Z,73.30
2018-10-06T00:15:18.006Z,73.16
2018-10-06T00:16:18.022Z,73.68
2018-10-06T00:17:17.997Z,73.20
2018-10-06T00:18:17.978Z,73.91
2018-10-06T00:19:17.964Z,73.40
2018-10-06T00:20:17.958Z,73.91
2018-10-06T00:21:17.945Z,74.11
2018-10-06T00:22:17.940Z,72.89
2018-10-06T00:23:17.936Z,72.89
2018-10-06T00:24:17.911Z,72.92
2018-10-06T00:25:17.901Z,72.52
2018-10-06T00:26:17.893Z,73.64
2018-10-06T00:27:17.903Z,73.03
2018-10-06T00:28:17.874Z,73.03
2018-10-06T00:29:17.870Z,72.92
2018-10-06T00:30:17.852Z,73.23
2018-10-06T00:31:17.842Z,73.23
2018-10-06T00:32:17.861Z,73.50
2018-10-06T00:33:17.822Z,73.03
2018-10-06T00:34:17.810Z,72.99
2018-10-06T00:35:17.816Z,73.03
2018-10-06T00:36:17.782Z,72.78
2018-10-06T00:37:17.786Z,72.99
2018-10-06T00:38:17.765Z,73.30
2018-10-06T00:39:17.756Z,72.28
2018-10-06T00:40:17.749Z,72.04
2018-10-06T00:41:17.732Z,71.94
2018-10-06T00:42:17.724Z,71.66
2018-10-06T00:43:17.716Z,71.83
2018-10-06T00:44:17.699Z,71.94
2018-10-06T00:45:17.689Z,72.28
2018-10-06T00:46:17.680Z,72.24
2018-10-06T00:47:17.730Z,71.97
2018-10-06T00:48:17.676Z,72.17
2018-10-06T00:49:17.647Z,72.00
2018-10-06T00:50:17.642Z,72.20
2018-10-06T00:51:17.643Z,73.03
2018-10-06T00:52:17.614Z,72.41
2018-10-06T00:53:17.631Z,71.97
2018-10-06T00:54:17.593Z,72.11
2018-10-06T00:55:17.580Z,72.41
2018-10-06T00:56:17.573Z,72.48
2018-10-06T00:57:17.564Z,72.41
2018-10-06T00:58:17.577Z,71.90
2018-10-06T00:59:17.545Z,72.00
2018-10-06T01:00:17.527Z,72.11
2018-10-06T01:01:17.521Z,72.07
2018-10-06T01:02:17.510Z,71.97
2018-10-06T01:03:17.499Z,72.20
2018-10-06T01:04:17.492Z,72.41
2018-10-06T01:05:17.486Z,73.13
2018-10-06T01:06:17.462Z,72.82
2018-10-06T01:07:17.455Z,72.92
2018-10-06T01:08:17.465Z,73.23
2018-10-06T01:09:17.453Z,72.75
2018-10-06T01:10:17.424Z,73.06
2018-10-06T01:11:17.415Z,73.68
2018-10-06T01:12:17.398Z,74.29
2018-10-06T01:13:17.390Z,74.39
2018-10-06T01:14:17.399Z,74.08
2018-10-06T01:15:17.391Z,74.08
2018-10-06T01:16:17.355Z,73.88
2018-10-06T01:17:17.357Z,74.49
2018-10-06T01:18:17.336Z,74.29
2018-10-06T01:19:17.335Z,73.98
2018-10-06T01:20:17.330Z,73.88
2018-10-06T01:21:17.306Z,73.78
2018-10-06T01:22:17.294Z,72.96
2018-10-06T01:23:17.284Z,72.65
2018-10-06T01:24:17.283Z,73.06
2018-10-06T01:25:17.286Z,73.78
2018-10-06T01:26:17.261Z,73.36
2018-10-06T01:27:17.277Z,72.82
2018-10-06T01:28:17.241Z,73.03
2018-10-06T01:29:17.242Z,73.16
2018-10-06T01:30:17.207Z,73.47
2018-10-06T01:31:17.205Z,72.96
2018-10-06T01:32:17.201Z,73.16
2018-10-06T01:33:17.175Z,73.44
2018-10-06T01:34:17.167Z,72.55
2018-10-06T01:35:17.164Z,72.34
2018-10-06T01:36:17.144Z,72.65
2018-10-06T01:37:17.143Z,73.57
2018-10-06T01:38:17.126Z,74.32
2018-10-06T01:39:17.109Z,73.71
2018-10-06T01:40:17.115Z,73.57
2018-10-06T01:41:17.090Z,73.81
2018-10-06T01:42:17.088Z,74.22
2018-10-06T01:43:17.087Z,74.53
2018-10-06T01:44:17.064Z,74.43
2018-10-06T01:45:17.054Z,74.57
2018-10-06T01:46:17.037Z,74.77
2018-10-06T01:47:17.058Z,74.32
2018-10-06T01:48:17.013Z,73.71
2018-10-06T01:49:17.017Z,74.32
2018-10-06T01:50:16.999Z,74.43
2018-10-06T01:51:16.993Z,74.02
2018-10-06T01:52:16.994Z,73.40
2018-10-06T01:53:16.975Z,73.98
2018-10-06T01:54:16.956Z,73.16
2018-10-06T01:55:16.958Z,73.57
2018-10-06T01:56:16.928Z,74.22
2018-10-06T01:57:16.926Z,73.36
2018-10-06T01:58:16.920Z,72.99
2018-10-06T01:59:16.899Z,73.10
2018-10-06T02:00:16.908Z,72.99
2018-10-06T02:01:16.875Z,73.19
2018-10-06T02:02:16.873Z,73.71
2018-10-06T02:03:16.866Z,73.10
2018-10-06T02:04:16.891Z,72.99
2018-10-06T02:05:16.835Z,73.30
2018-10-06T02:06:16.862Z,72.38
2018-10-06T02:07:16.827Z,72.96
2018-10-06T02:08:16.849Z,72.99
2018-10-06T02:09:16.790Z,73.30
2018-10-06T02:10:16.782Z,73.81
2018-10-06T02:11:16.776Z,73.19
2018-10-06T02:12:16.784Z,72.96
2018-10-06T02:13:16.790Z,71.83
2018-10-06T02:14:16.765Z,72.58
2018-10-06T02:15:16.729Z,72.55
2018-10-06T02:16:16.717Z,72.65
2018-10-06T02:17:16.732Z,72.55
2018-10-06T02:18:16.706Z,72.48
2018-10-06T02:19:16.699Z,73.19
2018-10-06T02:20:16.673Z,73.19
2018-10-06T02:21:16.661Z,72.58
2018-10-06T02:22:16.655Z,73.61
2018-10-06T02:23:16.650Z,72.92
2018-10-06T02:24:16.666Z,72.99
2018-10-06T02:25:16.620Z,72.48
2018-10-06T02:26:16.614Z,72.17
2018-10-06T02:27:16.616Z,72.99
2018-10-06T02:28:16.620Z,73.33
2018-10-06T02:29:16.595Z,73.10
2018-10-06T02:30:16.673Z,72.89
2018-10-06T02:31:16.575Z,73.19
2018-10-06T02:32:16.551Z,73.44
2018-10-06T02:33:16.535Z,73.30
2018-10-06T02:34:16.528Z,72.68
2018-10-06T02:35:16.533Z,73.13
2018-10-06T02:36:16.509Z,73.23
2018-10-06T02:37:16.517Z,73.40
2018-10-06T02:38:16.487Z,73.40
2018-10-06T02:39:16.472Z,73.13
2018-10-06T02:40:16.506Z,73.85
2018-10-06T02:41:16.476Z,74.15
2018-10-06T02:42:16.441Z,73.74
2018-10-06T02:43:16.443Z,73.85
2018-10-06T02:44:16.421Z,74.26
2018-10-06T02:45:16.434Z,73.23
2018-10-06T02:46:16.412Z,73.02
2018-10-06T02:47:16.391Z,72.99
2018-10-06T02:48:16.382Z,72.58
2018-10-06T02:49:16.383Z,72.78
2018-10-06T02:50:16.357Z,73.23
2018-10-06T02:51:16.359Z,72.31
2018-10-06T02:52:16.338Z,72.38
2018-10-06T02:53:16.329Z,73.23
2018-10-06T02:54:16.315Z,72.41
2018-10-06T02:55:16.308Z,73.19
2018-10-06T02:56:16.294Z,73.02
2018-10-06T02:57:16.288Z,73.64
2018-10-06T02:58:16.280Z,73.74
2018-10-06T02:59:16.269Z,73.64
2018-10-06T03:00:16.249Z,73.74
2018-10-06T03:01:16.244Z,73.95
2018-10-06T03:02:16.233Z,73.85
2018-10-06T03:03:16.225Z,73.95
2018-10-06T03:04:16.245Z,74.36
2018-10-06T03:05:16.195Z,74.15
2018-10-06T03:06:16.196Z,74.87
2018-10-06T03:07:16.173Z,74.57
2018-10-06T03:08:16.187Z,74.87
2018-10-06T03:09:16.179Z,74.26
2018-10-06T03:10:16.142Z,74.57
2018-10-06T03:11:16.131Z,74.08
2018-10-06T03:12:16.118Z,74.36
2018-10-06T03:13:16.129Z,74.66
2018-10-06T03:14:16.123Z,74.46
2018-10-06T03:15:16.117Z,74.26
2018-10-06T03:16:16.090Z,74.15
2018-10-06T03:17:16.069Z,74.46
2018-10-06T03:18:16.057Z,73.85
2018-10-06T03:19:16.060Z,74.46
2018-10-06T03:20:16.039Z,74.36
2018-10-06T03:21:16.029Z,74.57
2018-10-06T03:22:16.012Z,73.74
2018-10-06T03:23:16.007Z,73.74
2018-10-06T03:24:16.013Z,73.64
2018-10-06T03:25:15.981Z,73.19
2018-10-06T03:26:15.984Z,74.26
2018-10-06T03:27:15.983Z,73.85
2018-10-06T03:28:15.953Z,73.33
2018-10-06T03:29:16.000Z,73.44
2018-10-06T03:30:15.931Z,72.82
2018-10-06T03:31:15.916Z,73.64
2018-10-06T03:32:15.931Z,74.26
2018-10-06T03:33:16.864Z,73.88
2018-10-06T03:34:15.886Z,74.49
2018-10-06T03:35:15.885Z,74.49
2018-10-06T03:36:15.863Z,74.57
2018-10-06T03:37:15.853Z,74.46
2018-10-06T03:38:15.854Z,73.95
2018-10-06T03:39:15.834Z,73.85
2018-10-06T03:40:15.860Z,73.64
2018-10-06T03:41:15.811Z,73.85
2018-10-06T03:42:15.799Z,74.05
2018-10-06T03:43:15.790Z,74.05
2018-10-06T03:44:15.788Z,74.36
2018-10-06T03:45:15.776Z,74.36
2018-10-06T03:46:15.801Z,74.46
2018-10-06T03:47:15.753Z,74.15
2018-10-06T03:48:15.737Z,74.15
2018-10-06T03:49:15.748Z,73.95
2018-10-06T03:50:15.744Z,74.36
2018-10-06T03:51:15.719Z,74.46
2018-10-06T03:52:15.704Z,73.74
2018-10-06T03:53:15.692Z,74.15
2018-10-06T03:54:15.673Z,74.57
2018-10-06T03:55:15.680Z,74.26
2018-10-06T03:56:15.663Z,74.32
2018-10-06T03:57:15.650Z,73.81
2018-10-06T03:58:15.627Z,73.61
2018-10-06T03:59:15.623Z,73.74
2018-10-06T04:00:15.611Z,73.54
2018-10-06T04:01:15.605Z,73.50
2018-10-06T04:02:15.591Z,74.22
2018-10-06T04:03:15.583Z,74.46
2018-10-06T04:04:15.573Z,74.46
2018-10-06T04:05:15.554Z,74.36
2018-10-06T04:06:15.567Z,74.57
2018-10-06T04:07:15.551Z,74.87
2018-10-06T04:08:15.527Z,74.46
2018-10-06T04:09:15.512Z,75.18
2018-10-06T04:10:15.506Z,74.98
2018-10-06T04:11:15.538Z,75.28
2018-10-06T04:12:15.482Z,75.38
2018-10-06T04:13:15.477Z,75.49
2018-10-06T04:14:15.471Z,75.69
2018-10-06T04:15:15.451Z,75.38
2018-10-06T04:16:15.440Z,75.38
2018-10-06T04:17:15.447Z,74.98
2018-10-06T04:18:15.413Z,75.49
2018-10-06T04:19:15.412Z,75.18
2018-10-06T04:20:15.398Z,75.59
2018-10-06T04:21:15.389Z,75.45
2018-10-06T04:22:15.408Z,75.49
2018-10-06T04:23:15.373Z,74.84
2018-10-06T04:24:15.350Z,74.77
2018-10-06T04:25:15.344Z,74.63
2018-10-06T04:26:15.329Z,74.32
2018-10-06T04:27:15.321Z,73.98
2018-10-06T04:28:15.319Z,74.12
2018-10-06T04:29:15.311Z,73.40
2018-10-06T04:30:15.288Z,74.02
2018-10-06T04:31:15.326Z,74.32
2018-10-06T04:32:15.269Z,74.53
2018-10-06T04:33:15.284Z,73.85
2018-10-06T04:34:15.248Z,74.32
2018-10-06T04:35:15.236Z,74.77
2018-10-06T04:36:15.230Z,74.66
2018-10-06T04:37:15.213Z,74.66
2018-10-06T04:38:15.218Z,75.08
2018-10-06T04:39:15.192Z,74.98
2018-10-06T04:40:15.179Z,74.57
2018-10-06T04:41:15.168Z,74.32
2018-10-06T04:42:15.156Z,74.32
2018-10-06T04:43:15.146Z,74.02
2018-10-06T04:44:15.147Z,74.53
2018-10-06T04:45:15.123Z,73.81
2018-10-06T04:46:15.111Z,74.15
2018-10-06T04:47:15.136Z,74.57
2018-10-06T04:48:15.091Z,74.66
2018-10-06T04:49:15.107Z,74.57
2018-10-06T04:50:15.070Z,74.66
2018-10-06T04:51:15.059Z,74.57
2018-10-06T04:52:15.074Z,75.18
2018-10-06T04:53:15.143Z,75.18
2018-10-06T04:54:15.052Z,75.01
2018-10-06T04:55:15.016Z,75.52
2018-10-06T04:56:15.032Z,75.42
2018-10-06T04:57:14.997Z,75.59
2018-10-06T04:58:14.996Z,75.18
2018-10-06T04:59:15.005Z,74.80
2018-10-06T05:00:14.986Z,75.18
2018-10-06T05:01:14.967Z,74.66
2018-10-06T05:02:14.951Z,74.70
2018-10-06T05:03:14.944Z,74.91
2018-10-06T05:04:14.921Z,74.66
2018-10-06T05:05:14.924Z,74.36
2018-10-06T05:06:14.904Z,74.66
2018-10-06T05:07:14.888Z,75.11
2018-10-06T05:08:14.883Z,74.87
2018-10-06T05:09:14.874Z,75.59
2018-10-06T05:10:14.858Z,75.28
2018-10-06T05:11:14.848Z,75.59
2018-10-06T05:12:14.843Z,75.28
2018-10-06T05:13:14.832Z,75.38
2018-10-06T05:14:14.826Z,75.90
2018-10-06T05:15:14.833Z,75.73
2018-10-06T05:16:14.788Z,75.73
2018-10-06T05:17:14.782Z,75.62
2018-10-06T05:18:14.773Z,75.42
2018-10-06T05:19:14.762Z,76.04
2018-10-06T05:20:14.749Z,75.42
2018-10-06T05:21:14.760Z,75.32
2018-10-06T05:22:14.726Z,74.91
2018-10-06T05:23:14.720Z,75.32
2018-10-06T05:24:14.703Z,75.32
2018-10-06T05:25:14.697Z,74.70
2018-10-06T05:26:14.690Z,74.98
2018-10-06T05:27:14.674Z,75.42
2018-10-06T05:28:14.662Z,75.01
2018-10-06T05:29:14.660Z,75.21
2018-10-06T05:30:14.639Z,75.73
2018-10-06T05:31:14.651Z,74.60
2018-10-06T05:32:14.620Z,74.66
2018-10-06T05:33:14.607Z,74.87
2018-10-06T05:34:14.718Z,74.98
2018-10-06T05:35:14.595Z,74.98
2018-10-06T05:36:14.576Z,74.80
2018-10-06T05:37:14.606Z,74.98
2018-10-06T05:38:14.574Z,75.01
2018-10-06T05:39:14.544Z,75.52
2018-10-06T05:40:14.548Z,75.62
2018-10-06T05:41:14.535Z,74.80
2018-10-06T05:42:14.514Z,74.66
2018-10-06T05:43:14.507Z,74.46
2018-10-06T05:44:14.508Z,74.57
2018-10-06T05:45:14.482Z,74.57
2018-10-06T05:46:14.508Z,74.05
2018-10-06T05:47:14.480Z,74.26
2018-10-06T05:48:14.474Z,74.46
2018-10-06T05:49:14.438Z,74.66
2018-10-06T05:50:14.454Z,74.57
2018-10-06T05:51:14.418Z,74.57
2018-10-06T05:52:14.406Z,75.49
2018-10-06T05:53:14.418Z,75.52
2018-10-06T05:54:14.386Z,76.04
2018-10-06T05:55:14.381Z,75.79
2018-10-06T05:56:14.364Z,75.90
2018-10-06T05:57:14.357Z,76.00
2018-10-06T05:58:14.374Z,75.79
2018-10-06T05:59:14.428Z,75.76
2018-10-06T06:00:14.325Z,75.66
2018-10-06T06:01:14.313Z,75.24
2018-10-06T06:02:14.301Z,75.24
2018-10-06T06:03:14.308Z,75.28
2018-10-06T06:04:14.276Z,75.24
2018-10-06T06:05:14.267Z,75.76
2018-10-06T06:06:14.262Z,75.35
2018-10-06T06:07:14.243Z,75.45
2018-10-06T06:08:14.260Z,75.31
2018-10-06T06:09:14.234Z,75.31
2018-10-06T06:10:14.215Z,75.82
2018-10-06T06:11:14.205Z,75.62
2018-10-06T06:12:14.199Z,75.93
2018-10-06T06:13:14.186Z,75.62
2018-10-06T06:14:14.177Z,75.62
2018-10-06T06:15:14.160Z,75.73
2018-10-06T06:16:14.157Z,75.73
2018-10-06T06:17:14.143Z,75.59
2018-10-06T06:18:14.148Z,75.62
2018-10-06T06:19:14.126Z,75.62
2018-10-06T06:20:14.130Z,75.48
2018-10-06T06:21:14.095Z,75.59
2018-10-06T06:22:14.089Z,75.69
2018-10-06T06:23:14.072Z,75.79
2018-10-06T06:24:14.086Z,75.69
2018-10-06T06:25:14.054Z,75.59
2018-10-06T06:26:14.045Z,75.59
2018-10-06T06:27:14.029Z,75.73
2018-10-06T06:28:14.021Z,76.14
2018-10-06T06:29:14.041Z,76.03
2018-10-06T06:30:14.004Z,76.54
2018-10-06T06:31:14.065Z,76.44
2018-10-06T06:32:14.034Z,76.44
2018-10-06T06:33:13.970Z,76.03
2018-10-06T06:34:13.964Z,76.34
2018-10-06T06:35:13.969Z,75.93
2018-10-06T06:36:13.935Z,76.20
2018-10-06T06:37:13.930Z,76.34
2018-10-06T06:38:13.988Z,77.12
2018-10-06T06:39:13.901Z,76.51
2018-10-06T06:40:13.915Z,76.51
2018-10-06T06:41:13.906Z,76.61
2018-10-06T06:42:13.875Z,76.81
2018-10-06T06:43:13.867Z,76.61
2018-10-06T06:44:13.938Z,76.31
2018-10-06T06:45:13.842Z,76.10
2018-10-06T06:46:13.833Z,75.86
2018-10-06T06:47:13.817Z,76.98
2018-10-06T06:48:13.816Z,76.57
2018-10-06T06:49:13.800Z,75.96
2018-10-06T06:50:13.814Z,76.03
2018-10-06T06:51:13.791Z,75.62
2018-10-06T06:52:13.777Z,76.13
2018-10-06T06:53:13.761Z,75.65
2018-10-06T06:54:13.758Z,76.03
2018-10-06T06:55:13.739Z,76.13
2018-10-06T06:56:13.736Z,76.03
2018-10-06T06:57:13.717Z,76.40
2018-10-06T06:58:13.715Z,75.68
2018-10-06T06:59:13.688Z,75.38
2018-10-06T07:00:13.678Z,75.59
2018-10-06T07:01:13.668Z,75.45
2018-10-06T07:02:13.667Z,75.24
2018-10-06T07:03:13.661Z,74.84
2018-10-06T07:04:13.644Z,74.63
2018-10-06T07:05:13.630Z,74.52
2018-10-06T07:06:13.684Z,74.18
2018-10-06T07:07:13.607Z,73.88
2018-10-06T07:08:13.598Z,74.18
2018-10-06T07:09:13.602Z,74.18
2018-10-06T07:10:13.580Z,74.59
2018-10-06T07:11:13.562Z,74.59
2018-10-06T07:12:13.561Z,74.08
2018-10-06T07:13:13.546Z,73.74
2018-10-06T07:14:13.544Z,74.05
2018-10-06T07:15:13.527Z,73.91
2018-10-06T07:16:13.507Z,72.89
2018-10-06T07:17:13.509Z,72.89
2018-10-06T07:18:13.490Z,72.58
2018-10-06T07:19:13.479Z,73.30
2018-10-06T07:20:13.471Z,73.71
2018-10-06T07:21:13.475Z,73.91
2018-10-06T07:22:13.471Z,74.01
2018-10-06T07:23:13.438Z,73.98
2018-10-06T07:24:13.424Z,74.90
2018-10-06T07:25:13.453Z,75.20
2018-10-06T07:26:13.404Z,75.31
2018-10-06T07:27:13.414Z,75.71
2018-10-06T07:28:13.394Z,75.57
2018-10-06T07:29:13.369Z,75.57
2018-10-06T07:30:13.357Z,75.88
2018-10-06T07:31:13.355Z,75.48
2018-10-06T07:32:13.345Z,75.57
2018-10-06T07:33:13.349Z,75.57
2018-10-06T07:34:13.347Z,75.68
2018-10-06T07:35:13.311Z,76.56
2018-10-06T07:36:13.305Z,75.64
2018-10-06T07:37:13.291Z,76.46
2018-10-06T07:38:13.278Z,75.30
2018-10-06T07:39:13.270Z,76.53
2018-10-06T07:40:13.258Z,76.42
2018-10-06T07:41:13.243Z,76.32
2018-10-06T07:42:13.248Z,75.30
2018-10-06T07:43:13.225Z,75.67
2018-10-06T07:44:13.217Z,75.78
2018-10-06T07:45:13.208Z,75.57
2018-10-06T07:46:13.190Z,75.64
2018-10-06T07:47:13.184Z,75.02
2018-10-06T07:48:13.182Z,75.43
2018-10-06T07:49:13.161Z,74.99
2018-10-06T07:50:13.146Z,75.30
2018-10-06T07:51:13.142Z,74.76
2018-10-06T07:52:13.146Z,74.76
2018-10-06T07:53:13.304Z,74.55
2018-10-06T07:54:13.109Z,75.26
2018-10-06T07:55:13.090Z,74.52
2018-10-06T07:56:13.079Z,74.31
2018-10-06T07:57:13.075Z,73.80
2018-10-06T07:58:13.071Z,74.31
2018-10-06T07:59:13.075Z,74.72
2018-10-06T08:00:13.038Z,74.28
2018-10-06T08:01:13.051Z,73.67
2018-10-06T08:02:13.019Z,73.83
2018-10-06T08:03:13.012Z,73.22
2018-10-06T08:04:13.004Z,73.80
2018-10-06T08:05:12.986Z,74.10
2018-10-06T08:06:13.046Z,74.01
2018-10-06T08:07:12.997Z,73.80
2018-10-06T08:08:12.950Z,73.60
2018-10-06T08:09:12.950Z,73.46
2018-10-06T08:10:12.930Z,73.06
2018-10-06T08:11:12.930Z,73.36
2018-10-06T08:12:12.907Z,72.96
2018-10-06T08:13:12.910Z,72.65
2018-10-06T08:14:12.886Z,73.06
2018-10-06T08:15:12.881Z,73.36
2018-10-06T08:16:12.869Z,72.75
2018-10-06T08:17:12.870Z,73.36
2018-10-06T08:18:12.852Z,72.85
2018-10-06T08:19:12.837Z,73.46
2018-10-06T08:20:12.827Z,73.26
2018-10-06T08:21:12.813Z,73.46
2018-10-06T08:22:12.803Z,73.16
2018-10-06T08:23:12.800Z,72.96
2018-10-06T08:24:12.813Z,73.16
2018-10-06T08:25:12.770Z,73.77
2018-10-06T08:26:12.765Z,72.82
2018-10-06T08:27:12.758Z,73.57
2018-10-06T08:28:12.763Z,73.73
2018-10-06T08:29:12.733Z,73.63
2018-10-06T08:30:12.733Z,73.43
2018-10-06T08:31:12.712Z,73.93
2018-10-06T08:32:12.695Z,73.43
2018-10-06T08:33:12.688Z,73.33
2018-10-06T08:34:12.678Z,73.53
2018-10-06T08:35:12.667Z,74.04
2018-10-06T08:36:12.651Z,73.63
2018-10-06T08:37:12.639Z,73.49
2018-10-06T08:38:12.630Z,73.70
2018-10-06T08:39:12.626Z,73.49
2018-10-06T08:40:12.611Z,73.90
2018-10-06T08:41:12.598Z,73.56
2018-10-06T08:42:12.590Z,72.75
2018-10-06T08:43:12.589Z,71.94
2018-10-06T08:44:12.568Z,71.94
2018-10-06T08:45:12.554Z,73.25
2018-10-06T08:46:12.549Z,72.78
2018-10-06T08:47:12.532Z,72.24
2018-10-06T08:48:12.538Z,72.65
2018-10-06T08:49:12.536Z,72.85
2018-10-06T08:50:12.501Z,73.09
2018-10-06T08:51:12.489Z,73.46
2018-10-06T08:52:12.480Z,72.89
2018-10-06T08:53:12.469Z,72.85
2018-10-06T08:54:12.478Z,72.89
2018-10-06T08:55:12.474Z,73.29
2018-10-06T08:56:12.537Z,73.09
2018-10-06T08:57:12.428Z,73.66
2018-10-06T08:58:12.437Z,73.16
2018-10-06T08:59:12.403Z,73.46
2018-10-06T09:00:12.408Z,72.65
2018-10-06T09:01:12.394Z,72.81
2018-10-06T09:02:12.376Z,73.25
2018-10-06T09:03:12.363Z,73.22
2018-10-06T09:04:12.395Z,73.25
2018-10-06T09:05:12.370Z,73.97
2018-10-06T09:06:12.337Z,73.83
2018-10-06T09:07:12.317Z,73.39
2018-10-06T09:08:12.329Z,73.09
2018-10-06T09:09:12.307Z,73.05
2018-10-06T09:10:12.294Z,72.24
2018-10-06T09:11:12.294Z,72.34
2018-10-06T09:12:12.269Z,71.50
2018-10-06T09:13:12.259Z,71.09
2018-10-06T09:14:12.249Z,71.09
2018-10-06T09:15:12.243Z,70.86
2018-10-06T09:16:12.240Z,71.67
2018-10-06T09:17:12.212Z,71.67
2018-10-06T09:18:12.201Z,70.25
2018-10-06T09:19:12.195Z,70.05
2018-10-06T09:20:12.178Z,70.86
2018-10-06T09:21:12.190Z,70.22
2018-10-06T09:22:12.162Z,70.42
2018-10-06T09:23:12.149Z,70.89
2018-10-06T09:24:12.139Z,69.89
2018-10-06T09:25:12.130Z,70.56
2018-10-06T09:26:12.133Z,69.85
2018-10-06T09:27:12.103Z,70.26
2018-10-06T09:28:12.103Z,69.21
2018-10-06T09:29:12.083Z,68.81
2018-10-06T09:30:12.081Z,69.38
2018-10-06T09:31:12.061Z,67.36
2018-10-06T09:32:12.069Z,66.05
2018-10-06T09:33:12.041Z,65.45
2018-10-06T09:34:12.028Z,65.52
2018-10-06T09:35:12.018Z,66.13
2018-10-06T09:36:12.017Z,65.79
2018-10-06T09:37:12.003Z,65.89
2018-10-06T09:38:12.016Z,64.86
2018-10-06T09:39:11.981Z,64.72
2018-10-06T09:40:11.966Z,64.72
2018-10-06T09:41:11.954Z,64.69
2018-10-06T09:42:12.095Z,64.59
2018-10-06T09:43:11.933Z,63.76
2018-10-06T09:44:11.927Z,64.03
2018-10-06T09:45:11.919Z,63.29
2018-10-06T09:46:11.899Z,62.29
2018-10-06T09:47:11.890Z,60.96
2018-10-06T09:48:11.953Z,60.22
2018-10-06T09:49:11.874Z,59.22
2018-10-06T09:50:11.872Z,57.41
2018-10-06T09:51:11.851Z,57.08
2018-10-06T09:52:11.839Z,56.88
2018-10-06T09:53:11.830Z,56.76
2018-10-06T09:54:11.817Z,56.33
2018-10-06T09:55:11.808Z,54.43
2018-10-06T09:56:11.819Z,53.57
2018-10-06T09:57:11.785Z,53.27
2018-10-06T09:58:11.796Z,52.44
2018-10-06T09:59:11.776Z,52.22
2018-10-06T10:00:11.751Z,50.89
2018-10-06T10:01:11.743Z,49.72
2018-10-06T10:02:11.742Z,49.57
2018-10-06T10:03:11.722Z,47.09
2018-10-06T10:04:11.720Z,45.63
2018-10-06T10:05:11.698Z,44.79
2018-10-06T10:06:11.695Z,44.57
2018-10-06T10:07:11.679Z,44.33
2018-10-06T10:08:11.709Z,42.68
2018-10-06T10:09:11.668Z,41.65
2018-10-06T10:10:11.647Z,40.76
2018-10-06T10:11:11.646Z,40.86
2018-10-06T10:12:11.623Z,39.79
2018-10-06T10:13:11.615Z,38.24
2018-10-06T10:14:11.621Z,36.59
2018-10-06T10:15:11.601Z,35.71
2018-10-06T10:16:11.588Z,34.75
2018-10-06T10:17:11.672Z,33.23
2018-10-06T10:18:11.691Z,33.69
2018-10-06T10:19:11.553Z,32.40
2018-10-06T10:20:11.551Z,33.07
2018-10-06T10:21:11.542Z,32.97
2018-10-06T10:22:11.706Z,33.08
2018-10-06T10:23:11.523Z,33.65
2018-10-06T10:24:11.506Z,32.82
2018-10-06T10:25:11.505Z,33.15
2018-10-06T10:26:11.482Z,33.29
2018-10-06T10:27:11.473Z,34.92
2018-10-06T10:28:11.477Z,35.92
2018-10-06T10:29:11.446Z,36.04
2018-10-06T10:30:11.462Z,37.19
2018-10-06T10:31:11.432Z,38.81
2018-10-06T10:32:11.413Z,39.81
2018-10-06T10:33:11.414Z,40.45
2018-10-06T10:34:11.397Z,40.76
2018-10-06T10:35:11.888Z,40.90
2018-10-06T10:36:11.383Z,43.32
2018-10-06T10:37:11.384Z,42.94
2018-10-06T10:38:11.359Z,43.56
2018-10-06T10:39:11.375Z,44.57
2018-10-06T10:40:11.330Z,44.49
2018-10-06T10:41:11.330Z,44.18
2018-10-06T10:42:11.309Z,44.35
2018-10-06T10:43:11.301Z,43.96
2018-10-06T10:44:11.315Z,43.32
2018-10-06T10:45:11.279Z,40.56
2018-10-06T10:46:11.291Z,39.68
2018-10-06T10:47:11.262Z,38.89
2018-10-06T10:48:11.294Z,38.14
2018-10-06T10:49:11.241Z,36.82
2018-10-06T10:50:11.235Z,36.20
2018-10-06T10:51:11.231Z,35.82
2018-10-06T10:52:11.208Z,36.13
2018-10-06T10:53:11.193Z,36.94
2018-10-06T10:54:11.183Z,38.77
2018-10-06T10:55:11.186Z,39.06
2018-10-06T10:56:11.163Z,38.51
2018-10-06T10:57:11.181Z,40.53
2018-10-06T10:58:11.163Z,40.15
2018-10-06T10:59:11.131Z,41.79
2018-10-06T11:00:11.208Z,42.47
2018-10-06T11:01:11.222Z,44.57
2018-10-06T11:02:11.116Z,45.81
2018-10-06T11:03:11.093Z,44.93
2018-10-06T11:04:11.086Z,45.06
2018-10-06T11:05:11.073Z,46.77
2018-10-06T11:06:11.065Z,46.47
2018-10-06T11:07:11.067Z,47.69
2018-10-06T11:08:11.045Z,47.33
2018-10-06T11:09:11.030Z,48.85
2018-10-06T11:10:11.037Z,49.77
2018-10-06T11:11:11.072Z,49.57
2018-10-06T11:12:10.998Z,50.07
2018-10-06T11:13:10.987Z,49.40
2018-10-06T11:14:10.984Z,50.37
2018-10-06T11:15:10.964Z,50.40
2018-10-06T11:16:10.955Z,50.70
2018-10-06T11:17:10.966Z,49.98
2018-10-06T11:18:10.941Z,50.27
2018-10-06T11:19:10.919Z,50.35
2018-10-06T11:20:10.909Z,49.53
2018-10-06T11:21:10.910Z,49.38
2018-10-06T11:22:10.893Z,48.44
2018-10-06T11:23:10.899Z,47.54
2018-10-06T11:24:10.870Z,47.14
2018-10-06T11:25:10.857Z,46.53
2018-10-06T11:26:10.847Z,46.65
2018-10-06T11:27:10.845Z,47.66
2018-10-06T11:28:10.835Z,47.49
2018-10-06T11:29:10.827Z,48.49
2018-10-06T11:30:10.803Z,47.86
2018-10-06T11:31:10.793Z,46.92
2018-10-06T11:32:10.797Z,45.81
2018-10-06T11:33:10.802Z,45.09
2018-10-06T11:34:10.764Z,44.67
2018-10-06T11:35:10.755Z,43.71
2018-10-06T11:36:10.739Z,40.70
2018-10-06T11:37:10.795Z,37.32
2018-10-06T11:38:10.772Z,36.97
2018-10-06T11:39:10.734Z,37.89
2018-10-06T11:40:10.696Z,38.14
2018-10-06T11:41:10.691Z,38.69
2018-10-06T11:42:10.680Z,40.82
2018-10-06T11:43:10.666Z,40.62
2018-10-06T11:44:10.656Z,40.62
2018-10-06T11:45:10.648Z,40.64
2018-10-06T11:46:10.636Z,40.25
2018-10-06T11:47:10.625Z,41.18
2018-10-06T11:48:10.613Z,42.60
2018-10-06T11:49:10.604Z,43.64
2018-10-06T11:50:10.613Z,44.55
2018-10-06T11:51:10.584Z,44.07
2018-10-06T11:52:10.576Z,43.76
2018-10-06T11:53:10.560Z,43.24
2018-10-06T11:54:10.551Z,39.83
2018-10-06T11:55:10.559Z,37.95
2018-10-06T11:56:10.529Z,36.82
2018-10-06T11:57:10.519Z,37.34
2018-10-06T11:58:10.512Z,37.93
2018-10-06T11:59:10.503Z,37.32
2018-10-06T12:00:10.568Z,36.82
2018-10-06T12:01:10.483Z,35.59
2018-10-06T12:02:10.474Z,34.97
2018-10-06T12:03:10.459Z,35.55
2018-10-06T12:04:10.543Z,36.75
2018-10-06T12:05:10.438Z,36.87
2018-10-06T12:06:10.432Z,34.70
2018-10-06T12:07:10.427Z,34.69
2018-10-06T12:08:10.409Z,33.31
2018-10-06T12:09:10.397Z,33.59
2018-10-06T12:10:10.386Z,33.77
2018-10-06T12:11:10.385Z,33.95
2018-10-06T12:12:10.366Z,33.15
2018-10-06T12:13:10.360Z,33.15
2018-10-06T12:14:10.344Z,33.64
2018-10-06T12:15:10.331Z,33.26
2018-10-06T12:16:10.363Z,32.31
2018-10-06T12:17:10.315Z,33.82
2018-10-06T12:18:10.313Z,34.43
2018-10-06T12:19:10.292Z,34.86
2018-10-06T12:20:10.284Z,35.88
2018-10-06T12:21:10.277Z,36.88
2018-10-06T12:22:10.283Z,36.71
2018-10-06T12:23:10.251Z,37.05
2018-10-06T12:24:10.243Z,37.84
2018-10-06T12:25:10.231Z,37.62
2018-10-06T12:26:10.290Z,37.03
2018-10-06T12:27:10.216Z,37.11
2018-10-06T12:28:10.200Z,35.18
2018-10-06T12:29:10.259Z,35.76
2018-10-06T12:30:10.184Z,33.69
2018-10-06T12:31:10.172Z,33.15
2018-10-06T12:32:10.176Z,33.36
2018-10-06T12:33:10.147Z,34.56
2018-10-06T12:34:10.142Z,34.59
2018-10-06T12:35:10.142Z,35.31
2018-10-06T12:36:10.119Z,35.43
2018-10-06T12:37:10.106Z,37.03
2018-10-06T12:38:10.113Z,35.93
2018-10-06T12:39:10.088Z,35.93
2018-10-06T12:40:10.084Z,34.15
2018-10-06T12:41:10.064Z,32.12
2018-10-06T12:42:10.084Z,32.20
2018-10-06T12:43:10.058Z,30.78
2018-10-06T12:44:10.036Z,30.91
2018-10-06T12:45:10.037Z,30.04
2018-10-06T12:46:10.015Z,29.71
2018-10-06T12:47:10.006Z,28.97
2018-10-06T12:48:10.011Z,29.18
2018-10-06T12:49:09.994Z,29.81
2018-10-06T12:50:09.972Z,29.13
2018-10-06T12:51:09.962Z,30.96
2018-10-06T12:52:09.957Z,31.06